createdAt,value
2017-08-17T00:02:25.992Z,18.40
2017-08-17T00:04:54.277Z,26.30
2017-08-17T00:07:22.549Z,19.90
2017-08-17T00:09:50.808Z,17.33
2017-08-17T00:12:19.138Z,16.20
2017-08-17T00:14:47.416Z,19.97
2017-08-17T00:17:15.710Z,18.17
2017-08-17T00:19:44.762Z,16.23
2017-08-17T00:22:13.032Z,17.30
2017-08-17T00:24:41.309Z,14.70
2017-08-17T00:27:10.324Z,20.13
2017-08-17T00:29:38.649Z,22.13
2017-08-17T00:32:07.689Z,16.33
2017-08-17T00:34:35.987Z,19.27
2017-08-17T00:37:05.119Z,22.50
2017-08-17T00:39:33.415Z,17.93
2017-08-17T00:42:01.672Z,19.03
2017-08-17T00:44:29.948Z,14.43
2017-08-17T00:46:59.002Z,21.20
2017-08-17T00:49:27.252Z,14.07
2017-08-17T00:51:55.529Z,15.90
2017-08-17T00:54:23.830Z,18.47
2017-08-17T00:56:52.168Z,16.00
2017-08-17T00:59:21.270Z,17.80
2017-08-17T01:01:49.558Z,21.03
2017-08-17T01:04:17.820Z,17.83
2017-08-17T01:06:46.123Z,15.87
2017-08-17T01:09:15.136Z,18.10
2017-08-17T01:11:43.413Z,14.73
2017-08-17T01:14:11.677Z,23.83
2017-08-17T01:16:39.971Z,16.77
2017-08-17T01:19:08.985Z,21.63
2017-08-17T01:21:37.289Z,16.73
2017-08-17T01:24:05.594Z,21.10
2017-08-17T01:26:33.882Z,20.93
2017-08-17T01:29:02.197Z,19.50
2017-08-17T01:31:31.214Z,22.40
2017-08-17T01:33:59.507Z,17.60
2017-08-17T01:36:27.785Z,15.83
2017-08-17T01:38:56.050Z,16.40
2017-08-17T01:41:24.300Z,17.53
2017-08-17T01:43:52.609Z,19.27
2017-08-17T01:46:20.889Z,21.93
2017-08-17T01:48:49.187Z,26.50
2017-08-17T01:51:18.229Z,18.50
2017-08-17T01:53:46.518Z,16.93
2017-08-17T01:56:14.777Z,31.00
2017-08-17T01:58:43.049Z,23.67
2017-08-17T02:01:12.073Z,23.77
2017-08-17T02:03:40.329Z,22.40
2017-08-17T02:06:08.608Z,26.77
2017-08-17T02:08:36.865Z,21.53
2017-08-17T02:11:05.145Z,27.17
2017-08-17T02:13:33.412Z,19.00
2017-08-17T02:16:01.711Z,21.40
2017-08-17T02:18:29.970Z,22.73
2017-08-17T02:20:58.270Z,25.13
2017-08-17T02:23:26.558Z,27.33
2017-08-17T02:25:54.826Z,23.90
2017-08-17T02:28:23.899Z,28.13
2017-08-17T02:30:52.185Z,24.03
2017-08-17T02:33:20.475Z,33.43
2017-08-17T02:35:48.745Z,29.03
2017-08-17T02:38:17.001Z,22.33
2017-08-17T02:40:45.256Z,19.43
2017-08-17T02:43:13.541Z,24.10
2017-08-17T02:45:41.891Z,24.40
2017-08-17T02:48:10.184Z,25.13
2017-08-17T02:50:39.228Z,21.10
2017-08-17T02:53:07.485Z,18.30
2017-08-17T02:55:35.753Z,22.67
2017-08-17T02:58:04.066Z,28.50
2017-08-17T03:00:32.408Z,25.80
2017-08-17T03:03:01.474Z,20.80
2017-08-17T03:05:29.778Z,21.13
2017-08-17T03:07:58.066Z,21.30
2017-08-17T03:10:26.325Z,19.73
2017-08-17T03:12:54.642Z,18.40
2017-08-17T03:15:22.936Z,21.20
2017-08-17T03:17:53.142Z,20.33
2017-08-17T03:20:21.438Z,22.23
2017-08-17T03:22:49.717Z,27.43
2017-08-17T03:25:18.769Z,26.17
2017-08-17T03:27:47.032Z,19.23
2017-08-17T03:30:15.319Z,21.00
2017-08-17T03:32:44.374Z,22.47
2017-08-17T03:35:12.646Z,29.23
2017-08-17T03:37:41.670Z,26.27
2017-08-17T03:40:09.930Z,30.00
2017-08-17T03:42:38.243Z,20.10
2017-08-17T03:45:07.173Z,21.57
2017-08-17T03:47:35.467Z,21.80
2017-08-17T03:50:03.740Z,32.67
2017-08-17T03:52:32.772Z,27.67
2017-08-17T03:55:01.133Z,27.97
2017-08-17T03:57:29.409Z,27.40
2017-08-17T03:59:57.689Z,29.37
2017-08-17T04:02:26.746Z,24.87
2017-08-17T04:04:55.062Z,25.60
2017-08-17T04:07:23.354Z,21.90
2017-08-17T04:09:51.638Z,22.40
2017-08-17T04:12:19.952Z,21.57
2017-08-17T04:14:48.217Z,25.50
2017-08-17T04:17:16.468Z,16.30
2017-08-17T04:19:44.794Z,18.27
2017-08-17T04:22:13.808Z,15.30
2017-08-17T04:24:42.057Z,13.40
2017-08-17T04:27:10.377Z,18.07
2017-08-17T04:29:38.670Z,12.07
2017-08-17T04:32:06.950Z,11.40
2017-08-17T04:34:35.233Z,11.10
2017-08-17T04:37:03.484Z,12.33
2017-08-17T04:39:31.773Z,11.17
2017-08-17T04:42:00.049Z,9.93
2017-08-17T04:44:29.098Z,10.07
2017-08-17T04:46:57.344Z,9.10
2017-08-17T04:49:25.652Z,9.60
2017-08-17T04:51:54.689Z,8.60
2017-08-17T04:54:22.676Z,9.40
2017-08-17T04:57:21.369Z,10.03
2017-08-17T04:59:49.656Z,8.00
2017-08-17T05:02:17.895Z,7.63
2017-08-17T05:04:46.200Z,7.90
2017-08-17T05:07:14.453Z,8.40
2017-08-17T05:09:42.700Z,7.63
2017-08-17T05:12:10.990Z,6.80
2017-08-17T05:14:39.242Z,6.73
2017-08-17T05:17:07.540Z,7.40
2017-08-17T05:19:35.854Z,6.87
2017-08-17T05:22:04.134Z,6.50
2017-08-17T05:24:32.381Z,6.60
2017-08-17T05:27:00.644Z,6.90
2017-08-17T05:29:28.893Z,6.63
2017-08-17T05:31:57.179Z,6.70
2017-08-17T05:34:26.243Z,6.07
2017-08-17T05:36:54.517Z,5.90
2017-08-17T05:39:22.790Z,6.00
2017-08-17T05:41:51.828Z,6.10
2017-08-17T05:44:20.119Z,5.90
2017-08-17T05:46:49.170Z,6.83
2017-08-17T05:49:17.515Z,5.77
2017-08-17T05:51:45.765Z,5.30
2017-08-17T05:54:14.010Z,5.33
2017-08-17T05:56:43.762Z,5.40
2017-08-17T05:59:12.840Z,5.13
2017-08-17T06:01:41.093Z,5.00
2017-08-17T06:04:09.373Z,5.13
2017-08-17T06:06:38.393Z,4.70
2017-08-17T06:09:06.682Z,4.87
2017-08-17T06:11:35.027Z,5.00
2017-08-17T06:14:03.303Z,4.57
2017-08-17T06:16:31.573Z,4.10
2017-08-17T06:18:59.832Z,5.40
2017-08-17T06:21:28.078Z,4.87
2017-08-17T06:23:56.363Z,4.03
2017-08-17T06:26:24.670Z,4.63
2017-08-17T06:28:52.912Z,4.73
2017-08-17T06:31:21.199Z,4.30
2017-08-17T06:33:49.505Z,4.00
2017-08-17T06:36:17.785Z,3.90
2017-08-17T06:38:46.062Z,4.00
2017-08-17T06:41:14.368Z,4.43
2017-08-17T06:43:42.617Z,4.10
2017-08-17T06:46:10.908Z,4.30
2017-08-17T06:48:39.957Z,4.33
2017-08-17T06:51:08.259Z,4.27
2017-08-17T06:53:37.315Z,3.80
2017-08-17T06:56:05.584Z,3.70
2017-08-17T06:58:34.602Z,3.50
2017-08-17T07:01:02.846Z,3.83
2017-08-17T07:03:31.108Z,3.87
2017-08-17T07:05:59.389Z,3.50
2017-08-17T07:08:27.680Z,3.70
2017-08-17T07:10:56.252Z,3.50
2017-08-17T07:13:24.497Z,3.57
2017-08-17T07:15:52.782Z,3.63
2017-08-17T07:18:21.048Z,3.07
2017-08-17T07:20:49.292Z,3.60
2017-08-17T07:23:17.579Z,3.60
2017-08-17T07:25:45.886Z,3.30
2017-08-17T07:28:14.216Z,3.13
2017-08-17T07:30:42.461Z,3.37
2017-08-17T07:33:10.741Z,3.50
2017-08-17T07:35:39.786Z,2.60
2017-08-17T07:38:08.044Z,3.13
2017-08-17T07:40:36.300Z,3.30
2017-08-17T07:43:04.598Z,3.33
2017-08-17T07:45:32.695Z,2.90
2017-08-17T07:48:00.956Z,2.83
2017-08-17T07:50:29.715Z,2.97
2017-08-17T07:52:57.989Z,2.87
2017-08-17T07:55:26.298Z,2.80
2017-08-17T07:57:54.561Z,3.20
2017-08-17T08:00:22.659Z,2.73
2017-08-17T08:02:50.920Z,2.93
2017-08-17T08:05:19.164Z,2.70
2017-08-17T08:07:47.442Z,2.70
2017-08-17T08:10:15.709Z,3.00
2017-08-17T08:12:43.965Z,2.80
2017-08-17T08:15:12.251Z,2.60
2017-08-17T08:17:40.562Z,2.47
2017-08-17T08:20:08.820Z,2.87
2017-08-17T08:22:37.097Z,2.30
2017-08-17T08:25:05.391Z,2.63
2017-08-17T08:27:33.660Z,2.50
2017-08-17T08:30:01.943Z,2.20
2017-08-17T08:32:31.035Z,3.10
2017-08-17T08:35:00.086Z,2.70
2017-08-17T08:37:28.364Z,2.57
2017-08-17T08:39:57.421Z,2.70
2017-08-17T08:42:25.518Z,2.57
2017-08-17T08:44:53.807Z,2.57
2017-08-17T08:47:22.111Z,2.07
2017-08-17T08:49:50.401Z,2.50
2017-08-17T08:52:18.677Z,2.43
2017-08-17T08:54:46.932Z,2.30
2017-08-17T08:57:15.235Z,2.67
2017-08-17T08:59:43.510Z,2.70
2017-08-17T09:02:11.731Z,2.50
2017-08-17T09:04:39.994Z,2.33
2017-08-17T09:07:08.242Z,2.30
2017-08-17T09:09:36.525Z,2.60
2017-08-17T09:12:04.814Z,2.10
2017-08-17T09:14:33.829Z,2.70
2017-08-17T09:17:02.138Z,2.60
2017-08-17T09:19:30.384Z,2.00
2017-08-17T09:21:58.637Z,2.40
2017-08-17T09:24:26.943Z,2.30
2017-08-17T09:26:56.026Z,2.33
2017-08-17T09:29:24.272Z,2.10
2017-08-17T09:31:53.346Z,1.87
2017-08-17T09:34:22.474Z,2.00
2017-08-17T09:36:50.721Z,2.37
2017-08-17T09:39:19.014Z,2.40
2017-08-17T09:41:47.299Z,2.50
2017-08-17T09:44:16.321Z,2.30
2017-08-17T09:46:44.599Z,2.50
2017-08-17T09:49:12.878Z,2.30
2017-08-17T09:51:41.162Z,2.27
2017-08-17T09:54:10.200Z,2.03
2017-08-17T09:56:38.457Z,1.90
2017-08-17T09:59:06.701Z,1.90
2017-08-17T10:01:34.962Z,2.10
2017-08-17T10:04:03.216Z,1.83
2017-08-17T10:06:31.489Z,2.00
2017-08-17T10:08:59.769Z,2.10
2017-08-17T10:11:28.025Z,1.97
2017-08-17T10:13:56.317Z,1.87
2017-08-17T10:16:25.353Z,2.03
2017-08-17T10:18:53.596Z,4.83
2017-08-17T10:21:21.879Z,2.00
2017-08-17T10:23:50.134Z,1.87
2017-08-17T10:26:18.414Z,1.97
2017-08-17T10:28:46.852Z,1.87
2017-08-17T10:31:15.188Z,2.30
2017-08-17T10:33:43.580Z,1.60
2017-08-17T10:36:11.822Z,1.90
2017-08-17T10:38:40.108Z,1.90
2017-08-17T10:41:09.484Z,1.93
2017-08-17T10:43:37.763Z,1.60
2017-08-17T10:46:06.085Z,1.87
2017-08-17T10:48:34.371Z,1.77
2017-08-17T10:51:02.664Z,1.90
2017-08-17T10:53:31.741Z,1.70
2017-08-17T10:56:00.027Z,2.10
2017-08-17T10:58:28.277Z,1.83
2017-08-17T11:00:57.304Z,2.10
2017-08-17T11:03:25.586Z,1.80
2017-08-17T11:05:53.845Z,1.90
2017-08-17T11:08:22.104Z,1.70
2017-08-17T11:10:50.387Z,1.80
2017-08-17T11:13:19.430Z,1.93
2017-08-17T11:15:47.738Z,1.77
2017-08-17T11:18:16.744Z,1.90
2017-08-17T11:20:45.026Z,1.90
2017-08-17T11:23:13.327Z,2.03
2017-08-17T11:25:42.375Z,2.20
2017-08-17T11:28:10.654Z,1.90
2017-08-17T11:30:38.950Z,1.80
2017-08-17T11:33:07.212Z,2.00
2017-08-17T11:35:35.490Z,1.80
2017-08-17T11:38:03.808Z,1.97
2017-08-17T11:40:32.107Z,1.90
2017-08-17T11:43:00.348Z,2.40
2017-08-17T11:45:28.621Z,2.03
2017-08-17T11:47:56.910Z,2.20
2017-08-17T11:50:25.204Z,1.93
2017-08-17T11:52:54.235Z,1.93
2017-08-17T11:55:22.480Z,1.80
2017-08-17T11:57:50.771Z,1.87
2017-08-17T12:00:19.045Z,1.50
2017-08-17T12:02:47.292Z,2.10
2017-08-17T12:05:15.576Z,2.10
2017-08-17T12:07:44.616Z,1.70
2017-08-17T12:10:12.861Z,1.90
2017-08-17T12:12:41.152Z,2.00
2017-08-17T12:15:09.421Z,2.03
2017-08-17T12:17:37.706Z,2.00
2017-08-17T12:20:06.749Z,1.93
2017-08-17T12:22:35.093Z,2.70
2017-08-17T12:25:03.343Z,1.90
2017-08-17T12:27:31.588Z,2.70
2017-08-17T12:29:59.878Z,2.27
2017-08-17T12:32:28.170Z,2.20
2017-08-17T12:34:57.217Z,1.80
2017-08-17T12:37:25.484Z,1.90
2017-08-17T12:39:53.771Z,1.80
2017-08-17T12:42:22.827Z,2.07
2017-08-17T12:44:51.126Z,1.70
2017-08-17T12:47:19.189Z,1.80
2017-08-17T12:49:47.433Z,1.90
2017-08-17T12:52:16.460Z,1.87
2017-08-17T12:54:44.704Z,2.10
2017-08-17T12:57:12.981Z,1.70
2017-08-17T12:59:41.273Z,1.50
2017-08-17T13:02:09.532Z,1.77
2017-08-17T13:04:38.556Z,1.73
2017-08-17T13:07:06.817Z,1.67
2017-08-17T13:09:35.215Z,1.73
2017-08-17T13:12:03.466Z,1.80
2017-08-17T13:14:31.766Z,1.50
2017-08-17T13:17:00.045Z,1.80
2017-08-17T13:19:28.293Z,1.80
2017-08-17T13:21:57.345Z,2.40
2017-08-17T13:24:25.626Z,2.10
2017-08-17T13:26:54.755Z,2.10
2017-08-17T13:29:23.059Z,1.53
2017-08-17T13:31:52.073Z,1.80
2017-08-17T13:34:20.328Z,1.90
2017-08-17T13:36:48.605Z,1.90
2017-08-17T13:39:16.888Z,1.50
2017-08-17T13:41:45.140Z,1.70
2017-08-17T13:44:13.434Z,1.90
2017-08-17T13:46:42.466Z,2.13
2017-08-17T13:49:10.742Z,1.67
2017-08-17T13:51:39.016Z,2.30
2017-08-17T13:54:07.298Z,2.03
2017-08-17T13:56:36.313Z,2.00
2017-08-17T13:59:04.611Z,1.63
2017-08-17T14:01:32.899Z,1.87
2017-08-17T14:04:01.913Z,1.80
2017-08-17T14:06:30.211Z,1.93
2017-08-17T14:08:58.490Z,2.50
2017-08-17T14:11:27.502Z,1.73
2017-08-17T14:13:55.589Z,1.80
2017-08-17T14:16:23.836Z,1.70
2017-08-17T14:18:52.084Z,2.00
2017-08-17T14:21:20.378Z,2.13
2017-08-17T14:23:48.629Z,1.70
2017-08-17T14:26:16.910Z,1.80
2017-08-17T14:28:45.174Z,1.90
2017-08-17T14:31:14.189Z,1.80
2017-08-17T14:33:42.436Z,2.10
2017-08-17T14:36:10.712Z,2.07
2017-08-17T14:38:39.007Z,1.80
2017-08-17T14:41:07.290Z,1.90
2017-08-17T14:43:35.599Z,1.67
2017-08-17T14:46:03.845Z,1.93
2017-08-17T14:48:32.085Z,2.20
2017-08-17T14:51:01.158Z,2.10
2017-08-17T14:53:30.210Z,1.73
2017-08-17T14:55:58.456Z,2.33
2017-08-17T14:58:26.730Z,1.80
2017-08-17T15:00:54.983Z,1.80
2017-08-17T15:03:23.271Z,2.17
2017-08-17T15:05:52.339Z,3.30
2017-08-17T15:08:20.631Z,1.70
2017-08-17T15:10:48.909Z,2.30
2017-08-17T15:13:17.168Z,1.70
2017-08-17T15:15:45.446Z,3.13
2017-08-17T15:18:13.692Z,1.87
2017-08-17T15:20:42.050Z,1.80
2017-08-17T15:23:10.292Z,2.00
2017-08-17T15:25:38.537Z,1.70
2017-08-17T15:28:06.859Z,2.47
2017-08-17T15:30:35.113Z,7.50
2017-08-17T15:33:03.366Z,1.50
2017-08-17T15:35:31.626Z,1.50
2017-08-17T15:37:59.948Z,1.70
2017-08-17T15:40:28.013Z,1.70
2017-08-17T15:42:56.320Z,1.70
2017-08-17T15:45:24.569Z,1.80
2017-08-17T15:47:52.858Z,1.90
2017-08-17T15:50:21.133Z,1.87
2017-08-17T15:52:50.201Z,1.50
2017-08-17T15:55:19.339Z,1.50
2017-08-17T15:57:47.640Z,1.40
2017-08-17T16:00:16.690Z,1.40
2017-08-17T16:02:44.938Z,1.63
2017-08-17T16:05:13.210Z,1.50
2017-08-17T16:07:41.494Z,2.60
2017-08-17T16:10:09.749Z,1.73
2017-08-17T16:12:38.008Z,1.50
2017-08-17T16:15:06.282Z,1.57
2017-08-17T16:17:35.322Z,1.60
2017-08-17T16:20:03.623Z,1.40
2017-08-17T16:22:32.628Z,1.30
2017-08-17T16:25:00.880Z,1.47
2017-08-17T16:27:29.177Z,2.00
2017-08-17T16:29:57.449Z,3.00
2017-08-17T16:32:25.729Z,1.37
2017-08-17T16:34:54.031Z,2.10
2017-08-17T16:37:22.309Z,1.63
2017-08-17T16:39:50.373Z,2.70
2017-08-17T16:42:18.674Z,1.80
2017-08-17T16:44:47.692Z,3.50
2017-08-17T16:47:15.945Z,4.00
2017-08-17T16:49:44.232Z,6.27
2017-08-17T16:52:12.492Z,6.83
2017-08-17T16:54:40.817Z,8.37
2017-08-17T16:57:09.122Z,8.40
2017-08-17T16:59:37.386Z,6.00
2017-08-17T17:02:05.667Z,6.03
2017-08-17T17:04:34.717Z,6.60
2017-08-17T17:07:02.995Z,5.37
2017-08-17T17:09:31.297Z,6.60
2017-08-17T17:11:59.615Z,4.90
2017-08-17T17:14:27.909Z,5.43
2017-08-17T17:16:56.200Z,4.50
2017-08-17T17:19:24.477Z,5.47
2017-08-17T17:21:52.728Z,5.47
2017-08-17T17:24:20.835Z,5.60
2017-08-17T17:26:49.868Z,5.03
2017-08-17T17:29:18.120Z,6.23
2017-08-17T17:31:46.373Z,5.87
2017-08-17T17:34:15.330Z,7.23
2017-08-17T17:36:43.601Z,4.70
2017-08-17T17:39:11.889Z,4.60
2017-08-17T17:41:41.086Z,4.33
2017-08-17T17:44:10.369Z,4.63
2017-08-17T17:46:38.624Z,4.33
2017-08-17T17:49:06.884Z,4.43
2017-08-17T17:51:35.125Z,4.03
2017-08-17T17:54:03.382Z,4.40
2017-08-17T17:56:31.653Z,4.20
2017-08-17T17:58:59.934Z,4.20
2017-08-17T18:01:28.952Z,4.57
2017-08-17T18:03:57.251Z,4.40
2017-08-17T18:06:25.534Z,3.97
2017-08-17T18:08:54.583Z,4.20
2017-08-17T18:11:22.865Z,4.30
2017-08-17T18:13:51.125Z,4.27
2017-08-17T18:16:19.411Z,4.50
2017-08-17T18:18:47.697Z,4.90
2017-08-17T18:21:15.957Z,9.30
2017-08-17T18:23:45.508Z,8.27
2017-08-17T18:26:14.538Z,8.53
2017-08-17T18:28:42.826Z,9.50
2017-08-17T18:31:11.089Z,11.63
2017-08-17T18:33:39.386Z,14.00
2017-08-17T18:36:07.673Z,10.50
2017-08-17T18:38:35.925Z,10.13
2017-08-17T18:41:04.249Z,14.70
2017-08-17T18:43:33.324Z,18.50
2017-08-17T18:46:02.354Z,18.40
2017-08-17T18:48:30.646Z,13.00
2017-08-17T18:50:58.939Z,12.13
2017-08-17T18:53:27.239Z,17.40
2017-08-17T18:55:55.552Z,10.43
2017-08-17T18:58:24.588Z,11.50
2017-08-17T19:00:52.869Z,11.20
2017-08-17T19:03:21.153Z,10.57
2017-08-17T19:05:49.441Z,11.73
2017-08-17T19:08:17.706Z,11.60
2017-08-17T19:10:46.378Z,9.00
2017-08-17T19:13:14.676Z,13.33
2017-08-17T19:15:43.734Z,8.10
2017-08-17T19:18:12.024Z,11.03
2017-08-17T19:20:40.283Z,7.23
2017-08-17T19:23:08.527Z,7.77
2017-08-17T19:25:36.806Z,7.50
2017-08-17T19:28:05.854Z,12.53
2017-08-17T19:30:34.141Z,7.33
2017-08-17T19:33:03.182Z,6.70
2017-08-17T19:35:31.472Z,9.20
2017-08-17T19:37:59.721Z,6.60
2017-08-17T19:40:28.313Z,9.07
2017-08-17T19:42:57.330Z,6.47
2017-08-17T19:45:25.853Z,7.10
2017-08-17T19:47:54.888Z,6.70
2017-08-17T19:50:23.177Z,6.37
2017-08-17T19:52:51.425Z,5.93
2017-08-17T19:55:19.726Z,5.90
2017-08-17T19:57:47.972Z,5.73
2017-08-17T20:00:17.031Z,5.57
2017-08-17T20:02:45.302Z,5.70
2017-08-17T20:05:14.313Z,6.10
2017-08-17T20:07:42.595Z,6.03
2017-08-17T20:10:10.901Z,5.40
2017-08-17T20:12:39.956Z,5.67
2017-08-17T20:15:08.209Z,5.50
2017-08-17T20:17:36.847Z,5.70
2017-08-17T20:20:05.092Z,5.70
2017-08-17T20:22:33.345Z,5.17
2017-08-17T20:25:01.634Z,5.40
2017-08-17T20:27:29.897Z,4.87
2017-08-17T20:29:58.175Z,6.20
2017-08-17T20:32:26.482Z,4.87
2017-08-17T20:34:54.736Z,5.30
2017-08-17T20:37:23.790Z,5.10
2017-08-17T20:39:52.061Z,5.10
2017-08-17T20:42:21.114Z,4.80
2017-08-17T20:44:49.368Z,4.80
2017-08-17T20:47:17.662Z,5.73
2017-08-17T20:49:46.677Z,4.97
2017-08-17T20:52:14.949Z,5.20
2017-08-17T20:54:43.233Z,5.20
2017-08-17T20:57:11.517Z,4.23
2017-08-17T20:59:40.536Z,5.13
2017-08-17T21:02:08.799Z,4.43
2017-08-17T21:04:37.078Z,5.50
2017-08-17T21:07:05.357Z,4.80
2017-08-17T21:09:33.424Z,4.77
2017-08-17T21:12:02.470Z,4.43
2017-08-17T21:14:30.722Z,5.03
2017-08-17T21:16:59.030Z,5.97
2017-08-17T21:19:27.280Z,12.13
2017-08-17T21:21:56.521Z,12.07
2017-08-17T21:24:24.817Z,10.40
2017-08-17T21:26:53.870Z,12.10
2017-08-17T21:29:22.162Z,12.57
2017-08-17T21:31:51.239Z,11.23
2017-08-17T21:34:20.295Z,12.50
2017-08-17T21:36:48.540Z,11.60
2017-08-17T21:39:16.824Z,10.83
2017-08-17T21:41:45.115Z,12.30
2017-08-17T21:44:13.410Z,11.57
2017-08-17T21:46:41.717Z,13.13
2017-08-17T21:49:10.748Z,13.10
2017-08-17T21:51:39.038Z,12.43
2017-08-17T21:54:07.322Z,13.43
2017-08-17T21:56:36.257Z,13.37
2017-08-17T21:59:05.310Z,11.30
2017-08-17T22:01:33.622Z,13.80
2017-08-17T22:04:01.911Z,10.10
2017-08-17T22:06:30.162Z,9.50
2017-08-17T22:08:58.458Z,7.63
2017-08-17T22:11:26.742Z,7.37
2017-08-17T22:13:54.993Z,8.93
2017-08-17T22:16:24.026Z,8.17
2017-08-17T22:18:52.122Z,7.90
2017-08-17T22:21:21.146Z,8.07
2017-08-17T22:23:49.445Z,8.17
2017-08-17T22:26:17.701Z,7.90
2017-08-17T22:28:45.949Z,6.57
2017-08-17T22:31:14.237Z,7.30
2017-08-17T22:33:43.252Z,10.90
2017-08-17T22:36:11.320Z,7.10
2017-08-17T22:38:39.619Z,6.80
2017-08-17T22:41:07.677Z,7.27
2017-08-17T22:43:35.923Z,7.10
2017-08-17T22:46:04.236Z,6.30
2017-08-17T22:48:32.485Z,5.73
2017-08-17T22:51:00.732Z,6.00
2017-08-17T22:53:29.770Z,10.10
2017-08-17T22:55:58.017Z,5.90
2017-08-17T22:58:26.307Z,6.30
2017-08-17T23:00:54.611Z,5.93
2017-08-17T23:03:22.869Z,6.07
2017-08-17T23:05:51.137Z,5.03
2017-08-17T23:08:19.426Z,5.23
2017-08-17T23:10:47.424Z,5.80
2017-08-17T23:13:16.466Z,5.73
2017-08-17T23:15:44.770Z,5.80
2017-08-17T23:18:13.025Z,5.60
2017-08-17T23:20:41.272Z,5.37
2017-08-17T23:23:10.312Z,6.53
2017-08-17T23:25:38.592Z,5.60
2017-08-17T23:28:06.840Z,5.37
2017-08-17T23:30:35.134Z,7.40
2017-08-17T23:33:04.178Z,5.17
2017-08-17T23:35:32.436Z,5.80
2017-08-17T23:38:00.730Z,5.13
2017-08-17T23:40:29.778Z,4.70
2017-08-17T23:42:58.063Z,4.73
2017-08-17T23:45:27.127Z,4.57
2017-08-17T23:47:55.410Z,4.90
2017-08-17T23:50:24.464Z,4.50
2017-08-17T23:52:52.973Z,4.60
2017-08-17T23:55:21.256Z,5.20
2017-08-17T23:57:49.511Z,5.60
